Wetterdaten: Woche 20.08.12 - 26.08.12 (KW34)
Datum Zeit Temp. A. Feuchte A. Luftdruck Regen Wind Richtung Taupunkt Windchill Windben
20.08.2012 00:00 17,3 C 78 % 1020,5 hPa 0,0 l/m 0,0 km/h N 13,4 C 17,3 C 0,0 km/h
20.08.2012 01:00 16,6 C 81 % 1020,2 hPa 0,0 l/m 0,0 km/h N 13,3 C 16,6 C 0,0 km/h
20.08.2012 02:00 16,0 C 82 % 1020,0 hPa 0,0 l/m 0,0 km/h N 12,9 C 16,0 C 0,0 km/h
20.08.2012 03:00 15,4 C 82 % 1020,0 hPa 0,0 l/m 0,0 km/h N 12,3 C 15,4 C 0,0 km/h
20.08.2012 04:00 15,0 C 82 % 1019,9 hPa 0,0 l/m 0,0 km/h N 11,9 C 15,0 C 0,0 km/h
20.08.2012 05:00 14,7 C 82 % 1019,7 hPa 0,0 l/m 0,0 km/h N 11,7 C 14,7 C 0,0 km/h
20.08.2012 06:00 14,3 C 82 % 1020,0 hPa 0,0 l/m 0,0 km/h N 11,2 C 14,3 C 0,0 km/h
20.08.2012 07:00 15,3 C 79 % 1020,1 hPa 0,0 l/m 0,0 km/h N 11,6 C 15,3 C 0,0 km/h
20.08.2012 08:00 18,7 C 79 % 1019,9 hPa 0,0 l/m 0,2 km/h N 15,0 C 18,7 C 2,8 km/h
20.08.2012 09:00 23,2 C 69 % 1019,8 hPa 0,0 l/m 0,4 km/h N 17,1 C 23,2 C 4,8 km/h
20.08.2012 10:00 27,5 C 56 % 1019,5 hPa 0,0 l/m 1,9 km/h N 17,9 C 27,5 C 10,5 km/h
20.08.2012 11:00 29,9 C 48 % 1019,1 hPa 0,0 l/m 3,5 km/h N 17,8 C 29,9 C 11,7 km/h
20.08.2012 12:00 32,2 C 44 % 1018,5 hPa 0,0 l/m 2,3 km/h N 18,4 C 32,2 C 11,7 km/h
20.08.2012 13:00 34,9 C 39 % 1017,7 hPa 0,0 l/m 1,9 km/h N 18,7 C 34,9 C 10,1 km/h
20.08.2012 14:00 36,5 C 33 % 1017,0 hPa 0,0 l/m 2,7 km/h N 17,6 C 36,5 C 12,5 km/h
20.08.2012 15:00 36,7 C 31 % 1016,4 hPa 0,0 l/m 2,5 km/h N 16,5 C 36,7 C 14,1 km/h
20.08.2012 16:00 35,5 C 33 % 1016,2 hPa 0,0 l/m 3,0 km/h N 16,7 C 35,5 C 14,5 km/h
20.08.2012 17:00 34,7 C 33 % 1016,0 hPa 0,0 l/m 2,3 km/h N 15,9 C 34,7 C 10,9 km/h
20.08.2012 18:00 34,0 C 34 % 1015,8 hPa 0,0 l/m 1,1 km/h N 15,9 C 34,0 C 7,2 km/h
20.08.2012 19:00 32,4 C 39 % 1015,5 hPa 0,0 l/m 0,1 km/h N 16,4 C 32,4 C 2,0 km/h
20.08.2012 20:00 28,3 C 49 % 1015,6 hPa 0,0 l/m 0,0 km/h N 16,5 C 28,3 C 0,4 km/h
20.08.2012 21:00 24,1 C 62 % 1015,8 hPa 0,0 l/m 0,0 km/h N 16,3 C 24,1 C 0,0 km/h
20.08.2012 22:00 21,8 C 69 % 1015,6 hPa 0,0 l/m 0,0 km/h N 15,9 C 21,8 C 0,0 km/h
20.08.2012 23:00 20,4 C 75 % 1015,8 hPa 0,0 l/m 0,0 km/h N 15,7 C 20,4 C 0,0 km/h
21.08.2012 00:00 19,5 C 78 % 1015,8 hPa 0,0 l/m 0,0 km/h N 15,5 C 19,5 C 1,2 km/h
21.08.2012 01:00 19,5 C 77 % 1015,6 hPa 0,0 l/m 0,0 km/h N 15,4 C 19,5 C 0,4 km/h
21.08.2012 02:00 19,3 C 78 % 1015,3 hPa 0,0 l/m 0,0 km/h N 15,3 C 19,3 C 0,8 km/h
21.08.2012 03:00 19,1 C 79 % 1015,5 hPa 0,0 l/m 0,1 km/h N 15,3 C 19,1 C 2,8 km/h
21.08.2012 04:00 18,7 C 81 % 1015,5 hPa 0,0 l/m 0,5 km/h N 15,2 C 18,7 C 5,2 km/h
21.08.2012 05:00 21,8 C 74 % 1015,7 hPa 0,0 l/m 5,9 km/h N 16,7 C 21,4 C 22,1 km/h
21.08.2012 06:00 25,7 C 60 % 1016,3 hPa 0,0 l/m 12,1 km/h N 17,4 C 24,6 C 34,2 km/h
21.08.2012 07:00 25,7 C 60 % 1016,6 hPa 0,0 l/m 12,1 km/h N 17,4 C 24,6 C 32,6 km/h
21.08.2012 08:00 25,6 C 60 % 1017,6 hPa 0,0 l/m 8,1 km/h N 17,1 C 25,2 C 24,9 km/h
21.08.2012 09:00 25,8 C 58 % 1018,4 hPa 0,0 l/m 11,1 km/h N 16,9 C 24,9 C 28,6 km/h
21.08.2012 10:00 26,5 C 57 % 1018,2 hPa 0,0 l/m 9,0 km/h N 17,2 C 26,1 C 22,9 km/h
21.08.2012 11:00 27,9 C 51 % 1017,4 hPa 0,0 l/m 8,4 km/h N 16,8 C 27,6 C 21,3 km/h
21.08.2012 12:00 28,2 C 50 % 1017,5 hPa 0,0 l/m 5,9 km/h N 16,6 C 28,1 C 17,7 km/h
21.08.2012 13:00 27,2 C 55 % 1017,9 hPa 0,0 l/m 3,9 km/h N 17,2 C 27,2 C 11,7 km/h
21.08.2012 14:00 27,0 C 57 % 1017,6 hPa 0,0 l/m 3,2 km/h N 17,7 C 27,0 C 10,5 km/h
21.08.2012 15:00 28,6 C 49 % 1016,9 hPa 0,0 l/m 5,4 km/h N 16,7 C 28,6 C 14,1 km/h
21.08.2012 16:00 29,2 C 46 % 1016,3 hPa 0,0 l/m 2,8 km/h N 16,2 C 29,2 C 10,1 km/h
21.08.2012 17:00 29,7 C 45 % 1015,6 hPa 0,0 l/m 1,1 km/h N 16,3 C 29,7 C 8,1 km/h
21.08.2012 18:00 29,3 C 44 % 1015,2 hPa 0,0 l/m 0,2 km/h N 15,7 C 29,3 C 4,4 km/h
21.08.2012 19:00 28,3 C 47 % 1014,9 hPa 0,0 l/m 0,0 km/h N 15,7 C 28,3 C 0,4 km/h
21.08.2012 20:00 24,9 C 58 % 1015,2 hPa 0,0 l/m 0,0 km/h N 16,1 C 24,9 C 0,4 km/h
21.08.2012 21:00 22,3 C 66 % 1015,4 hPa 0,0 l/m 0,0 km/h N 15,7 C 22,3 C 0,0 km/h
21.08.2012 22:00 21,0 C 71 % 1015,4 hPa 0,0 l/m 0,0 km/h N 15,5 C 21,0 C 0,4 km/h
21.08.2012 23:00 20,4 C 73 % 1015,3 hPa 0,0 l/m 0,0 km/h N 15,3 C 20,4 C 0,4 km/h
22.08.2012 00:00 20,0 C 75 % 1015,1 hPa 0,0 l/m 0,0 km/h N 15,3 C 20,0 C 0,4 km/h
22.08.2012 01:00 19,4 C 76 % 1014,7 hPa 0,0 l/m 0,0 km/h N 15,1 C 19,4 C 1,2 km/h
22.08.2012 02:00 18,5 C 79 % 1014,1 hPa 0,0 l/m 0,0 km/h N 14,6 C 18,5 C 0,4 km/h
22.08.2012 03:00 18,1 C 81 % 1013,8 hPa 0,0 l/m 0,1 km/h N 14,8 C 18,1 C 1,2 km/h
22.08.2012 04:00 18,0 C 81 % 1013,3 hPa 0,0 l/m 0,0 km/h N 14,7 C 18,0 C 0,8 km/h
22.08.2012 05:00 17,8 C 81 % 1013,1 hPa 0,0 l/m 0,0 km/h N 14,6 C 17,8 C 1,2 km/h
22.08.2012 06:00 17,6 C 82 % 1013,0 hPa 0,0 l/m 0,0 km/h N 14,5 C 17,6 C 0,4 km/h
22.08.2012 07:00 18,7 C 82 % 1013,3 hPa 0,0 l/m 0,0 km/h N 15,4 C 18,7 C 0,4 km/h
22.08.2012 08:00 20,5 C 80 % 1013,4 hPa 0,0 l/m 0,0 km/h N 16,9 C 20,5 C 1,2 km/h
22.08.2012 09:00 23,2 C 73 % 1013,7 hPa 0,0 l/m 1,3 km/h N 17,9 C 23,2 C 7,6 km/h
22.08.2012 10:00 27,3 C 58 % 1013,7 hPa 0,0 l/m 3,0 km/h N 18,3 C 27,3 C 12,9 km/h
22.08.2012 11:00 29,9 C 49 % 1013,9 hPa 0,0 l/m 8,1 km/h N 18,1 C 29,7 C 21,3 km/h
22.08.2012 12:00 30,3 C 49 % 1014,0 hPa 0,0 l/m 7,7 km/h N 18,2 C 30,2 C 18,5 km/h
22.08.2012 13:00 31,3 C 45 % 1013,6 hPa 0,0 l/m 3,6 km/h N 17,9 C 31,3 C 11,7 km/h
22.08.2012 14:00 32,7 C 40 % 1013,1 hPa 0,0 l/m 7,6 km/h N 17,4 C 32,7 C 18,1 km/h
22.08.2012 15:00 33,2 C 37 % 1012,8 hPa 0,0 l/m 7,6 km/h N 16,6 C 33,2 C 20,9 km/h
22.08.2012 16:00 32,5 C 39 % 1012,7 hPa 0,0 l/m 7,9 km/h N 16,5 C 32,4 C 23,7 km/h
22.08.2012 17:00 32,1 C 42 % 1012,8 hPa 0,0 l/m 11,4 km/h N 17,4 C 32,0 C 29,8 km/h
22.08.2012 18:00 31,8 C 43 % 1012,8 hPa 0,0 l/m 9,0 km/h N 17,6 C 31,7 C 22,9 km/h
22.08.2012 19:00 30,4 C 45 % 1012,9 hPa 0,0 l/m 6,8 km/h N 17,0 C 30,3 C 18,5 km/h
22.08.2012 20:00 28,3 C 53 % 1013,7 hPa 0,0 l/m 1,0 km/h N 17,6 C 28,3 C 6,1 km/h
22.08.2012 21:00 26,0 C 59 % 1014,9 hPa 0,0 l/m 0,1 km/h N 17,4 C 26,0 C 2,8 km/h
22.08.2012 22:00 25,2 C 63 % 1015,1 hPa 0,0 l/m 0,7 km/h N 17,5 C 25,2 C 7,6 km/h
22.08.2012 23:00 24,8 C 64 % 1014,2 hPa 0,0 l/m 0,3 km/h N 17,4 C 24,8 C 4,0 km/h
23.08.2012 00:00 23,3 C 69 % 1014,1 hPa 0,0 l/m 0,0 km/h N 17,1 C 23,3 C 0,4 km/h
23.08.2012 01:00 22,4 C 73 % 1014,3 hPa 0,0 l/m 0,0 km/h N 17,2 C 22,4 C 0,4 km/h
23.08.2012 02:00 23,9 C 64 % 1014,6 hPa 0,0 l/m 3,5 km/h N 16,5 C 23,9 C 17,7 km/h
23.08.2012 03:00 23,9 C 61 % 1013,8 hPa 0,0 l/m 1,0 km/h N 15,8 C 23,9 C 8,0 km/h
23.08.2012 04:00 21,9 C 66 % 1013,8 hPa 0,0 l/m 1,0 km/h N 15,3 C 21,9 C 5,6 km/h
23.08.2012 05:00 20,5 C 74 % 1013,6 hPa 0,0 l/m 0,6 km/h N 15,6 C 20,5 C 6,0 km/h
23.08.2012 06:00 19,9 C 75 % 1014,3 hPa 0,0 l/m 1,2 km/h N 15,4 C 19,9 C 7,7 km/h
23.08.2012 07:00 21,5 C 71 % 1014,3 hPa 0,0 l/m 2,3 km/h N 16,1 C 21,5 C 8,4 km/h
23.08.2012 08:00 23,5 C 65 % 1014,2 hPa 0,0 l/m 3,4 km/h N 16,6 C 23,5 C 12,9 km/h
23.08.2012 09:00 25,8 C 59 % 1014,6 hPa 0,0 l/m 0,4 km/h N 17,0 C 25,8 C 5,2 km/h
23.08.2012 10:00 26,4 C 58 % 1014,9 hPa 0,0 l/m 1,6 km/h N 17,5 C 26,4 C 8,9 km/h
23.08.2012 11:00 27,4 C 55 % 1014,7 hPa 0,0 l/m 5,9 km/h N 17,4 C 27,3 C 15,3 km/h
23.08.2012 12:00 29,1 C 53 % 1014,2 hPa 0,0 l/m 3,2 km/h N 18,5 C 29,1 C 12,1 km/h
23.08.2012 13:00 30,1 C 51 % 1013,7 hPa 0,0 l/m 2,9 km/h N 18,7 C 30,1 C 10,9 km/h
23.08.2012 14:00 29,6 C 51 % 1013,0 hPa 0,0 l/m 2,9 km/h N 18,3 C 29,6 C 12,1 km/h
23.08.2012 15:00 30,3 C 49 % 1012,6 hPa 0,0 l/m 1,6 km/h N 18,2 C 30,3 C 7,6 km/h
23.08.2012 16:00 30,3 C 48 % 1012,1 hPa 0,0 l/m 2,0 km/h N 17,8 C 30,3 C 8,1 km/h
23.08.2012 17:00 30,4 C 47 % 1011,6 hPa 0,0 l/m 2,9 km/h N 17,9 C 30,4 C 12,9 km/h
23.08.2012 18:00 30,1 C 48 % 1011,2 hPa 0,0 l/m 3,5 km/h N 17,8 C 30,1 C 11,7 km/h
23.08.2012 19:00 29,0 C 53 % 1010,7 hPa 0,0 l/m 3,7 km/h N 18,3 C 29,0 C 12,1 km/h
23.08.2012 20:00 26,8 C 60 % 1010,7 hPa 0,0 l/m 0,0 km/h N 18,2 C 26,8 C 0,8 km/h
23.08.2012 21:00 24,0 C 69 % 1010,8 hPa 0,0 l/m 0,0 km/h N 18,0 C 24,0 C 0,8 km/h
23.08.2012 22:00 22,8 C 74 % 1010,4 hPa 0,0 l/m 0,0 km/h N 17,9 C 22,8 C 0,4 km/h
23.08.2012 23:00 22,3 C 77 % 1011,0 hPa 0,0 l/m 0,8 km/h N 18,0 C 22,3 C 6,4 km/h
24.08.2012 00:00 24,8 C 67 % 1011,6 hPa 0,3 l/m 4,3 km/h N 18,3 C 24,8 C 16,9 km/h
24.08.2012 01:00 22,5 C 75 % 1010,9 hPa 0,0 l/m 1,6 km/h N 17,8 C 22,5 C 9,6 km/h
24.08.2012 02:00 21,7 C 75 % 1009,8 hPa 0,0 l/m 0,1 km/h N 16,9 C 21,7 C 2,4 km/h
24.08.2012 03:00 20,4 C 79 % 1009,3 hPa 0,0 l/m 0,4 km/h N 16,6 C 20,4 C 2,4 km/h
24.08.2012 04:00 20,1 C 81 % 1009,4 hPa 0,0 l/m 0,1 km/h N 16,6 C 20,1 C 1,6 km/h
24.08.2012 05:00 18,9 C 81 % 1009,1 hPa 0,0 l/m 0,0 km/h N 15,6 C 18,9 C 0,0 km/h
24.08.2012 06:00 18,2 C 81 % 1009,3 hPa 0,0 l/m 0,0 km/h N 14,8 C 18,2 C 0,8 km/h
24.08.2012 07:00 18,9 C 80 % 1010,0 hPa 0,0 l/m 0,2 km/h N 15,3 C 18,9 C 2,4 km/h
24.08.2012 08:00 23,0 C 68 % 1010,0 hPa 0,0 l/m 7,6 km/h N 16,7 C 22,4 C 25,3 km/h
24.08.2012 09:00 25,9 C 58 % 1009,8 hPa 0,0 l/m 13,6 km/h N 16,9 C 24,6 C 31,8 km/h
24.08.2012 10:00 27,9 C 50 % 1009,9 hPa 0,0 l/m 10,3 km/h N 16,5 C 27,3 C 28,2 km/h
24.08.2012 11:00 29,7 C 45 % 1009,8 hPa 0,0 l/m 5,1 km/h N 16,3 C 29,6 C 18,5 km/h
24.08.2012 12:00 31,2 C 41 % 1009,1 hPa 0,0 l/m 3,3 km/h N 16,3 C 31,2 C 11,3 km/h
24.08.2012 13:00 32,0 C 38 % 1009,0 hPa 0,0 l/m 3,2 km/h N 16,0 C 32,0 C 10,5 km/h
24.08.2012 14:00 32,9 C 38 % 1008,7 hPa 0,0 l/m 1,5 km/h N 16,5 C 32,9 C 7,7 km/h
24.08.2012 15:00 32,7 C 35 % 1008,6 hPa 0,0 l/m 3,7 km/h N 15,3 C 32,7 C 13,3 km/h
24.08.2012 16:00 31,8 C 36 % 1008,4 hPa 0,0 l/m 8,5 km/h N 14,8 C 31,8 C 22,1 km/h
24.08.2012 17:00 31,7 C 36 % 1008,0 hPa 0,0 l/m 4,9 km/h N 14,7 C 31,7 C 17,7 km/h
24.08.2012 18:00 30,8 C 39 % 1007,9 hPa 0,0 l/m 1,9 km/h N 15,2 C 30,8 C 10,0 km/h
24.08.2012 19:00 29,5 C 45 % 1007,6 hPa 0,0 l/m 0,0 km/h N 16,3 C 29,5 C 0,8 km/h
24.08.2012 20:00 27,3 C 50 % 1007,8 hPa 0,0 l/m 0,1 km/h N 16,0 C 27,3 C 1,2 km/h
24.08.2012 21:00 26,1 C 54 % 1008,5 hPa 0,0 l/m 1,5 km/h N 16,1 C 26,1 C 8,1 km/h
24.08.2012 22:00 25,9 C 53 % 1009,1 hPa 0,0 l/m 2,0 km/h N 15,4 C 25,9 C 8,0 km/h
24.08.2012 23:00 24,9 C 56 % 1009,8 hPa 0,0 l/m 4,3 km/h N 15,3 C 24,9 C 13,7 km/h
25.08.2012 00:00 23,5 C 60 % 1009,6 hPa 0,0 l/m 0,7 km/h N 15,2 C 23,5 C 4,8 km/h
25.08.2012 01:00 21,8 C 66 % 1009,8 hPa 0,0 l/m 0,4 km/h N 15,0 C 21,8 C 4,0 km/h
25.08.2012 02:00 21,0 C 69 % 1010,3 hPa 0,0 l/m 0,4 km/h N 15,0 C 21,0 C 3,2 km/h
25.08.2012 03:00 20,7 C 69 % 1010,7 hPa 0,0 l/m 0,1 km/h N 14,8 C 20,7 C 2,8 km/h
25.08.2012 04:00 20,6 C 69 % 1010,9 hPa 0,0 l/m 1,0 km/h N 14,7 C 20,6 C 6,0 km/h
25.08.2012 05:00 20,5 C 70 % 1010,8 hPa 0,0 l/m 0,9 km/h N 14,7 C 20,5 C 4,8 km/h
25.08.2012 06:00 20,0 C 73 % 1010,9 hPa 0,0 l/m 0,0 km/h N 14,9 C 20,0 C 2,0 km/h
25.08.2012 07:00 19,6 C 77 % 1011,1 hPa 0,0 l/m 0,0 km/h N 15,4 C 19,6 C 1,2 km/h
25.08.2012 08:00 22,3 C 70 % 1011,1 hPa 0,0 l/m 0,0 km/h N 16,5 C 22,3 C 1,2 km/h
25.08.2012 09:00 25,3 C 58 % 1010,9 hPa 0,0 l/m 1,2 km/h N 16,5 C 25,3 C 7,6 km/h
25.08.2012 10:00 26,4 C 55 % 1011,1 hPa 0,0 l/m 2,6 km/h N 16,7 C 26,4 C 11,3 km/h
25.08.2012 11:00 26,6 C 55 % 1011,4 hPa 0,0 l/m 4,2 km/h N 16,6 C 26,6 C 12,5 km/h
25.08.2012 12:00 26,8 C 54 % 1011,5 hPa 0,0 l/m 6,1 km/h N 16,6 C 26,7 C 17,7 km/h
25.08.2012 13:00 28,4 C 49 % 1010,9 hPa 0,0 l/m 2,3 km/h N 16,6 C 28,4 C 10,1 km/h
25.08.2012 14:00 28,6 C 48 % 1010,7 hPa 0,0 l/m 1,9 km/h N 16,5 C 28,6 C 10,9 km/h
25.08.2012 15:00 27,8 C 53 % 1010,8 hPa 0,0 l/m 1,5 km/h N 17,3 C 27,8 C 9,6 km/h
25.08.2012 16:00 25,9 C 60 % 1010,9 hPa 0,0 l/m 3,2 km/h N 17,5 C 25,9 C 10,5 km/h
25.08.2012 17:00 25,7 C 60 % 1010,4 hPa 0,0 l/m 1,2 km/h N 17,3 C 25,7 C 6,4 km/h
25.08.2012 18:00 25,2 C 60 % 1010,2 hPa 0,0 l/m 1,0 km/h N 16,9 C 25,2 C 6,0 km/h
25.08.2012 19:00 24,6 C 63 % 1009,8 hPa 0,0 l/m 0,0 km/h N 17,1 C 24,6 C 1,2 km/h
25.08.2012 20:00 23,6 C 67 % 1009,5 hPa 0,0 l/m 0,0 km/h N 17,0 C 23,6 C 0,4 km/h
25.08.2012 21:00 22,9 C 71 % 1009,4 hPa 0,0 l/m 0,0 km/h N 17,2 C 22,9 C 0,4 km/h
25.08.2012 22:00 21,9 C 74 % 1009,4 hPa 0,0 l/m 0,0 km/h N 16,9 C 21,9 C 0,0 km/h
25.08.2012 23:00 21,5 C 75 % 1009,8 hPa 0,0 l/m 0,0 km/h N 16,8 C 21,5 C 1,2 km/h
26.08.2012 00:00 21,6 C 71 % 1010,0 hPa 0,0 l/m 5,2 km/h N 16,2 C 21,6 C 17,3 km/h
26.08.2012 01:00 20,6 C 70 % 1010,1 hPa 0,0 l/m 3,9 km/h N 14,9 C 20,6 C 13,7 km/h
26.08.2012 02:00 20,3 C 70 % 1009,7 hPa 0,0 l/m 1,3 km/h N 14,7 C 20,3 C 7,2 km/h
26.08.2012 03:00 19,6 C 72 % 1009,8 hPa 0,0 l/m 2,5 km/h N 14,5 C 19,6 C 10,1 km/h
26.08.2012 04:00 20,0 C 73 % 1010,6 hPa 0,0 l/m 7,3 km/h N 15,0 C 19,3 C 20,1 km/h
26.08.2012 05:00 19,3 C 78 % 1011,8 hPa 0,5 l/m 15,9 km/h N 15,4 C 16,3 C 35,8 km/h
26.08.2012 06:00 17,7 C 81 % 1012,8 hPa 0,5 l/m 9,0 km/h N 14,4 C 16,5 C 20,9 km/h
26.08.2012 07:00 17,6 C 81 % 1013,2 hPa 0,0 l/m 10,1 km/h N 14,3 C 15,9 C 24,5 km/h
26.08.2012 08:00 17,6 C 80 % 1013,0 hPa 0,0 l/m 11,1 km/h N 14,1 C 15,6 C 25,4 km/h
26.08.2012 09:00 17,1 C 81 % 1013,3 hPa 0,3 l/m 3,2 km/h N 13,8 C 17,1 C 13,3 km/h
26.08.2012 10:00 17,2 C 80 % 1013,3 hPa 0,3 l/m 6,1 km/h N 13,7 C 16,9 C 21,3 km/h
26.08.2012 11:00 17,7 C 78 % 1013,3 hPa 0,0 l/m 6,2 km/h N 13,7 C 17,5 C 18,9 km/h
26.08.2012 12:00 18,1 C 74 % 1013,8 hPa 0,0 l/m 8,8 km/h N 13,4 C 17,0 C 25,3 km/h
26.08.2012 13:00 17,7 C 76 % 1013,8 hPa 0,8 l/m 6,6 km/h N 13,5 C 17,5 C 20,5 km/h
26.08.2012 14:00 17,1 C 80 % 1013,5 hPa 1,0 l/m 7,7 km/h N 13,6 C 16,4 C 24,1 km/h
26.08.2012 15:00 17,0 C 81 % 1013,5 hPa 0,5 l/m 4,7 km/h N 13,6 C 17,0 C 16,9 km/h
26.08.2012 16:00 17,7 C 79 % 1013,1 hPa 0,0 l/m 3,7 km/h N 13,9 C 17,7 C 13,7 km/h
26.08.2012 17:00 18,3 C 76 % 1013,1 hPa 0,0 l/m 6,1 km/h N 14,0 C 17,9 C 16,9 km/h
26.08.2012 18:00 18,3 C 71 % 1013,3 hPa 0,0 l/m 9,9 km/h N 13,0 C 16,9 C 24,9 km/h
26.08.2012 19:00 18,3 C 66 % 1013,4 hPa 0,0 l/m 10,4 km/h N 11,7 C 16,6 C 27,8 km/h
26.08.2012 20:00 18,8 C 62 % 1013,6 hPa 0,0 l/m 14,0 km/h N 11,2 C 16,0 C 36,2 km/h
26.08.2012 21:00 19,1 C 59 % 1013,9 hPa 0,0 l/m 17,5 km/h N 10,7 C 15,5 C 42,2 km/h
26.08.2012 22:00 18,6 C 60 % 1014,3 hPa 0,0 l/m 14,6 km/h N 10,6 C 15,7 C 40,7 km/h
26.08.2012 23:00 18,1 C 61 % 1014,8 hPa 0,0 l/m 17,5 km/h N 10,3 C 14,3 C 41,0 km/h
Min-Datum _ 20.08.12 20.08.12 24.08.12 - 20.08.12 - 26.08.12 26.08.12 20.08.12
_ Min-Zeit 06:30 15:15 19:15 - 00:00 - 23:15 23:45 00:00
Minimum _ 14,2 C 29 % 1007,5 hPa - 0,0 km/h - 10,2 C 13,3 C 0,0 km/h
Max-Datum _ 20.08.12 20.08.12 20.08.12 26.08.12 26.08.12 - 20.08.12 20.08.12 26.08.12
_ Max-Zeit 15:00 02:15 00:00 14:30 23:45 - 13:30 14:45 21:15
Maximum _ 37,4 C 82 % 1020,6 hPa 1,0 l/m 20,9 km/h
N
- 19,7 C 37,3 C 46,7 km/h
N
Durchschnitt _ 24,1 C 62 % 1013,4 hPa #4,2 l/m 3,2 km/h N 15,9 C 23,9 C 10,6 km/h